sensor_id;sensor_type;location;lat;lon;timestamp;pressure;altitude;pressure_sealevel;temperature;humidity
11468;BME280;5790;42.762;23.430;2023-07-30T00:02:26;71749.63;;;-142.66;62.57
11468;BME280;5790;42.762;23.430;2023-07-30T00:04:53;71743.50;;;-142.66;62.51
11468;BME280;5790;42.762;23.430;2023-07-30T00:07:20;71737.38;;;-142.66;62.08
11468;BME280;5790;42.762;23.430;2023-07-30T00:09:48;71749.63;;;-142.66;62.52
11468;BME280;5790;42.762;23.430;2023-07-30T00:12:15;71751.66;;;-142.66;62.79
11468;BME280;5790;42.762;23.430;2023-07-30T00:14:45;71765.94;;;-142.66;62.92
11468;BME280;5790;42.762;23.430;2023-07-30T00:17:12;71770.03;;;-142.66;63.45
11468;BME280;5790;42.762;23.430;2023-07-30T00:19:40;71765.94;;;-142.66;63.57
11468;BME280;5790;42.762;23.430;2023-07-30T00:22:08;71767.97;;;-142.66;62.59
11468;BME280;5790;42.762;23.430;2023-07-30T00:24:36;71767.97;;;-142.66;62.02
11468;BME280;5790;42.762;23.430;2023-07-30T00:27:05;71772.06;;;-142.66;61.54
11468;BME280;5790;42.762;23.430;2023-07-30T00:29:33;71794.50;;;-142.66;61.14
11468;BME280;5790;42.762;23.430;2023-07-30T00:32:00;71796.53;;;-142.66;60.68
11468;BME280;5790;42.762;23.430;2023-07-30T00:34:27;71825.13;;;-142.66;61.62
11468;BME280;5790;42.762;23.430;2023-07-30T00:36:54;71829.19;;;-142.66;62.29
11468;BME280;5790;42.762;23.430;2023-07-30T00:39:22;71833.28;;;-142.66;62.88
11468;BME280;5790;42.762;23.430;2023-07-30T00:41:49;71843.47;;;-142.66;62.73
11468;BME280;5790;42.762;23.430;2023-07-30T00:44:18;71863.88;;;-142.66;63.21
11468;BME280;5790;42.762;23.430;2023-07-30T00:46:45;71855.72;;;-142.66;63.02
11468;BME280;5790;42.762;23.430;2023-07-30T00:49:12;71845.53;;;-142.66;62.65
11468;BME280;5790;42.762;23.430;2023-07-30T00:51:41;71835.31;;;-142.66;62.41
11468;BME280;5790;42.762;23.430;2023-07-30T00:54:09;71825.13;;;-142.66;62.19
11468;BME280;5790;42.762;23.430;2023-07-30T00:56:36;71825.13;;;-142.66;61.89
11468;BME280;5790;42.762;23.430;2023-07-30T00:59:03;71814.91;;;-142.66;62.05
11468;BME280;5790;42.762;23.430;2023-07-30T01:01:33;71835.31;;;-142.66;62.36
11468;BME280;5790;42.762;23.430;2023-07-30T01:04:03;71823.06;;;-142.66;62.24
11468;BME280;5790;42.762;23.430;2023-07-30T01:06:31;71816.94;;;-142.66;62.50
11468;BME280;5790;42.762;23.430;2023-07-30T01:08:58;71821.03;;;-142.66;62.55
11468;BME280;5790;42.762;23.430;2023-07-30T01:11:26;71804.72;;;-142.66;62.06
11468;BME280;5790;42.762;23.430;2023-07-30T01:13:53;71800.63;;;-142.66;61.66
11468;BME280;5790;42.762;23.430;2023-07-30T01:16:21;71800.63;;;-142.66;61.60
11468;BME280;5790;42.762;23.430;2023-07-30T01:18:49;71808.78;;;-142.66;60.88
11468;BME280;5790;42.762;23.430;2023-07-30T01:21:18;71804.72;;;-142.66;60.46
11468;BME280;5790;42.762;23.430;2023-07-30T01:23:45;71814.91;;;-142.66;61.77
11468;BME280;5790;42.762;23.430;2023-07-30T01:26:18;71814.91;;;-142.66;61.90
11468;BME280;5790;42.762;23.430;2023-07-30T01:28:49;71823.06;;;-142.66;61.71
11468;BME280;5790;42.762;23.430;2023-07-30T01:31:18;71835.31;;;-142.66;61.85
11468;BME280;5790;42.762;23.430;2023-07-30T01:33:48;71906.72;;;-142.66;63.19
11468;BME280;5790;42.762;23.430;2023-07-30T01:36:20;71910.81;;;-142.66;63.72
11468;BME280;5790;42.762;23.430;2023-07-30T01:38:49;71937.34;;;-142.66;64.31
11468;BME280;5790;42.762;23.430;2023-07-30T01:41:17;71941.41;;;-142.66;64.42
11468;BME280;5790;42.762;23.430;2023-07-30T01:43:45;71947.53;;;-142.66;64.57
11468;BME280;5790;42.762;23.430;2023-07-30T01:46:12;71963.88;;;-142.66;65.46
11468;BME280;5790;42.762;23.430;2023-07-30T01:48:39;71953.66;;;-142.66;65.70
11468;BME280;5790;42.762;23.430;2023-07-30T01:51:06;71949.59;;;-142.66;66.01
11468;BME280;5790;42.762;23.430;2023-07-30T01:53:34;71939.38;;;-142.66;65.71
11468;BME280;5790;42.762;23.430;2023-07-30T01:56:02;71957.75;;;-142.66;65.91
11468;BME280;5790;42.762;23.430;2023-07-30T01:58:29;71951.63;;;-142.66;66.06
11468;BME280;5790;42.762;23.430;2023-07-30T02:00:56;71949.59;;;-142.66;66.17
11468;BME280;5790;42.762;23.430;2023-07-30T02:03:25;71959.78;;;-142.66;66.30
11468;BME280;5790;42.762;23.430;2023-07-30T02:05:52;71961.81;;;-142.66;66.36
11468;BME280;5790;42.762;23.430;2023-07-30T02:08:19;71970.00;;;-142.66;66.89
11468;BME280;5790;42.762;23.430;2023-07-30T02:10:55;71978.16;;;-142.66;66.81
11468;BME280;5790;42.762;23.430;2023-07-30T02:13:23;71959.78;;;-142.66;66.63
11468;BME280;5790;42.762;23.430;2023-07-30T02:15:50;71961.81;;;-142.66;66.49
11468;BME280;5790;42.762;23.430;2023-07-30T02:18:17;71970.00;;;-142.66;66.92
11468;BME280;5790;42.762;23.430;2023-07-30T02:20:44;71957.75;;;-142.66;66.73
11468;BME280;5790;42.762;23.430;2023-07-30T02:23:13;71955.69;;;-142.66;66.60
11468;BME280;5790;42.762;23.430;2023-07-30T02:25:40;71974.06;;;-142.66;66.90
11468;BME280;5790;42.762;23.430;2023-07-30T02:28:09;71996.50;;;-142.66;67.19
11468;BME280;5790;42.762;23.430;2023-07-30T02:30:36;71990.41;;;-142.66;66.99
11468;BME280;5790;42.762;23.430;2023-07-30T02:33:03;72006.72;;;-142.66;65.72
11468;BME280;5790;42.762;23.430;2023-07-30T02:35:30;72014.88;;;-142.66;65.41
11468;BME280;5790;42.762;23.430;2023-07-30T02:37:57;72041.41;;;-142.66;65.03
11468;BME280;5790;42.762;23.430;2023-07-30T02:40:24;72059.78;;;-142.66;65.80
11468;BME280;5790;42.762;23.430;2023-07-30T02:42:51;72045.50;;;-142.66;65.65
11468;BME280;5790;42.762;23.430;2023-07-30T02:45:20;72027.13;;;-142.66;64.89
11468;BME280;5790;42.762;23.430;2023-07-30T02:47:47;72037.31;;;-142.66;65.17
11468;BME280;5790;42.762;23.430;2023-07-30T02:50:14;72016.91;;;-142.66;65.13
11468;BME280;5790;42.762;23.430;2023-07-30T02:52:41;72016.91;;;-142.66;64.99
11468;BME280;5790;42.762;23.430;2023-07-30T02:55:08;72016.91;;;-142.66;64.58
11468;BME280;5790;42.762;23.430;2023-07-30T02:57:35;72008.75;;;-142.66;64.59
11468;BME280;5790;42.762;23.430;2023-07-30T03:00:03;72006.72;;;-142.66;64.73
11468;BME280;5790;42.762;23.430;2023-07-30T03:02:32;72010.81;;;-142.66;64.71
11468;BME280;5790;42.762;23.430;2023-07-30T03:05:00;72008.75;;;-142.66;65.29
11468;BME280;5790;42.762;23.430;2023-07-30T03:07:27;72037.31;;;-142.66;65.53
11468;BME280;5790;42.762;23.430;2023-07-30T03:09:55;72057.72;;;-142.66;65.92
11468;BME280;5790;42.762;23.430;2023-07-30T03:12:22;72084.25;;;-142.66;67.02
11468;BME280;5790;42.762;23.430;2023-07-30T03:14:49;72108.75;;;-142.66;67.71
11468;BME280;5790;42.762;23.430;2023-07-30T03:17:16;72155.69;;;-142.66;69.12
11468;BME280;5790;42.762;23.430;2023-07-30T03:19:46;72182.22;;;-142.66;69.65
11468;BME280;5790;42.762;23.430;2023-07-30T03:22:13;72218.94;;;-142.66;70.73
11468;BME280;5790;42.762;23.430;2023-07-30T03:24:40;72231.19;;;-142.66;71.65
11468;BME280;5790;42.762;23.430;2023-07-30T03:27:08;72218.94;;;-142.66;71.59
11468;BME280;5790;42.762;23.430;2023-07-30T03:29:35;72231.19;;;-142.66;71.64
11468;BME280;5790;42.762;23.430;2023-07-30T03:32:03;72251.59;;;-142.66;72.80
11468;BME280;5790;42.762;23.430;2023-07-30T03:34:30;72255.69;;;-142.66;73.55
11468;BME280;5790;42.762;23.430;2023-07-30T03:36:59;72274.03;;;-142.66;74.22
11468;BME280;5790;42.762;23.430;2023-07-30T03:39:27;72251.59;;;-142.66;74.18
11468;BME280;5790;42.762;23.430;2023-07-30T03:41:54;72265.88;;;-142.66;74.88
11468;BME280;5790;42.762;23.430;2023-07-30T03:44:21;72245.47;;;-142.66;74.49
11468;BME280;5790;42.762;23.430;2023-07-30T03:46:48;72245.47;;;-142.66;74.55
11468;BME280;5790;42.762;23.430;2023-07-30T03:49:15;72235.28;;;-142.66;74.18
11468;BME280;5790;42.762;23.430;2023-07-30T03:51:43;72269.97;;;-142.66;74.66
11468;BME280;5790;42.762;23.430;2023-07-30T03:54:11;72261.78;;;-142.66;74.67
11468;BME280;5790;42.762;23.430;2023-07-30T03:56:39;72269.97;;;-142.66;76.04
11468;BME280;5790;42.762;23.430;2023-07-30T03:59:06;72245.47;;;-142.66;75.50
11468;BME280;5790;42.762;23.430;2023-07-30T04:01:33;72227.09;;;-142.66;74.67
11468;BME280;5790;42.762;23.430;2023-07-30T04:04:00;72227.09;;;-142.66;74.15
11468;BME280;5790;42.762;23.430;2023-07-30T04:06:27;72220.97;;;-142.66;74.54
11468;BME280;5790;42.762;23.430;2023-07-30T04:08:54;72198.53;;;-142.66;74.20
11468;BME280;5790;42.762;23.430;2023-07-30T04:11:23;72178.13;;;-142.66;73.75
11468;BME280;5790;42.762;23.430;2023-07-30T04:13:50;72180.16;;;-142.66;73.86
11468;BME280;5790;42.762;23.430;2023-07-30T04:16:17;72180.16;;;-142.66;73.93
11468;BME280;5790;42.762;23.430;2023-07-30T04:18:44;72204.66;;;-142.66;75.17
11468;BME280;5790;42.762;23.430;2023-07-30T04:21:11;72184.25;;;-142.66;74.88
11468;BME280;5790;42.762;23.430;2023-07-30T04:23:39;72151.59;;;-142.66;74.69
11468;BME280;5790;42.762;23.430;2023-07-30T04:26:06;72133.22;;;-142.66;74.08
11468;BME280;5790;42.762;23.430;2023-07-30T04:28:35;72110.78;;;-142.66;73.92
11468;BME280;5790;42.762;23.430;2023-07-30T04:31:02;72114.88;;;-142.66;74.14
11468;BME280;5790;42.762;23.430;2023-07-30T04:33:29;72098.53;;;-142.66;74.35
11468;BME280;5790;42.762;23.430;2023-07-30T04:35:56;72082.22;;;-142.66;74.55
11468;BME280;5790;42.762;23.430;2023-07-30T04:38:24;72065.91;;;-142.66;74.50
11468;BME280;5790;42.762;23.430;2023-07-30T04:40:51;72057.72;;;-142.66;74.58
11468;BME280;5790;42.762;23.430;2023-07-30T04:43:18;72043.44;;;-142.66;74.29
11468;BME280;5790;42.762;23.430;2023-07-30T04:45:47;72018.97;;;-142.66;73.86
11468;BME280;5790;42.762;23.430;2023-07-30T04:48:14;72033.25;;;-142.66;74.15
11468;BME280;5790;42.762;23.430;2023-07-30T04:50:41;72006.72;;;-142.66;73.87
11468;BME280;5790;42.762;23.430;2023-07-30T04:53:09;71994.47;;;-142.66;74.30
11468;BME280;5790;42.762;23.430;2023-07-30T04:55:36;71976.09;;;-142.66;73.89
11468;BME280;5790;42.762;23.430;2023-07-30T04:58:03;71949.59;;;-142.66;73.21
11468;BME280;5790;42.762;23.430;2023-07-30T05:00:31;71927.13;;;-142.66;72.35
11468;BME280;5790;42.762;23.430;2023-07-30T05:03:00;71927.13;;;-142.66;72.01
11468;BME280;5790;42.762;23.430;2023-07-30T05:05:27;71882.25;;;-142.66;71.15
11468;BME280;5790;42.762;23.430;2023-07-30T05:07:54;71847.56;;;-142.66;70.36
11468;BME280;5790;42.762;23.430;2023-07-30T05:10:21;71812.88;;;-142.66;69.28
11468;BME280;5790;42.762;23.430;2023-07-30T05:12:49;71782.25;;;-142.66;67.37
11468;BME280;5790;42.762;23.430;2023-07-30T05:15:16;71753.69;;;-142.66;66.70
11468;BME280;5790;42.762;23.430;2023-07-30T05:17:44;71729.22;;;-142.66;65.97
11468;BME280;5790;42.762;23.430;2023-07-30T05:20:13;71708.81;;;-142.66;63.76
11468;BME280;5790;42.762;23.430;2023-07-30T05:22:40;71684.31;;;-142.66;62.20
11468;BME280;5790;42.762;23.430;2023-07-30T05:25:08;71665.97;;;-142.66;61.27
11468;BME280;5790;42.762;23.430;2023-07-30T05:27:36;71665.97;;;-142.66;59.57
11468;BME280;5790;42.762;23.430;2023-07-30T05:30:04;71668.00;;;-142.66;59.62
11468;BME280;5790;42.762;23.430;2023-07-30T05:32:31;71637.41;;;-142.66;60.93
11468;BME280;5790;42.762;23.430;2023-07-30T05:34:58;71617.00;;;-142.66;60.65
11468;BME280;5790;42.762;23.430;2023-07-30T05:37:27;71623.13;;;-142.66;60.10
11468;BME280;5790;42.762;23.430;2023-07-30T05:39:54;71594.56;;;-142.66;60.27
11468;BME280;5790;42.762;23.430;2023-07-30T05:42:21;71576.19;;;-142.66;59.51
11468;BME280;5790;42.762;23.430;2023-07-30T05:44:48;71555.78;;;-142.66;59.44
11468;BME280;5790;42.762;23.430;2023-07-30T05:47:15;71545.59;;;-142.66;58.01
11468;BME280;5790;42.762;23.430;2023-07-30T05:49:43;71557.81;;;-142.66;58.06
11468;BME280;5790;42.762;23.430;2023-07-30T05:52:10;71531.31;;;-142.66;58.02
11468;BME280;5790;42.762;23.430;2023-07-30T05:54:38;71547.63;;;-142.66;58.17
11468;BME280;5790;42.762;23.430;2023-07-30T05:57:06;71529.25;;;-142.66;58.14
11468;BME280;5790;42.762;23.430;2023-07-30T05:59:33;71521.09;;;-142.66;57.43
11468;BME280;5790;42.762;23.430;2023-07-30T06:02:02;71510.91;;;-142.66;57.45
11468;BME280;5790;42.762;23.430;2023-07-30T06:04:30;71482.34;;;-142.66;55.50
11468;BME280;5790;42.762;23.430;2023-07-30T06:06:59;71466.00;;;-142.66;55.63
11468;BME280;5790;42.762;23.430;2023-07-30T06:09:26;71439.50;;;-142.66;54.97
11468;BME280;5790;42.762;23.430;2023-07-30T06:11:56;71419.09;;;-142.66;54.96
11468;BME280;5790;42.762;23.430;2023-07-30T06:14:24;71404.81;;;-142.66;54.80
11468;BME280;5790;42.762;23.430;2023-07-30T06:16:51;71386.44;;;-142.66;100.00
11468;BME280;5790;42.762;23.430;2023-07-30T06:19:19;61465.97;;;-142.66;100.00
11468;BME280;5790;42.762;23.430;2023-07-30T06:21:46;61466.22;;;-142.66;54.60
11468;BME280;5790;42.762;23.430;2023-07-30T06:24:13;71349.72;;;-142.66;53.48
11468;BME280;5790;42.762;23.430;2023-07-30T06:26:40;71331.34;;;-142.66;52.74
11468;BME280;5790;42.762;23.430;2023-07-30T06:29:09;71310.97;;;-142.66;52.98
11468;BME280;5790;42.762;23.430;2023-07-30T06:31:36;71306.88;;;-142.66;51.50
11468;BME280;5790;42.762;23.430;2023-07-30T06:34:03;71286.47;;;-142.66;50.29
11468;BME280;5790;42.762;23.430;2023-07-30T06:36:31;71302.78;;;-142.66;50.15
11468;BME280;5790;42.762;23.430;2023-07-30T06:38:59;71353.81;;;-142.66;51.11
11468;BME280;5790;42.762;23.430;2023-07-30T06:41:26;71292.59;;;-142.66;50.28
11468;BME280;5790;42.762;23.430;2023-07-30T06:43:54;71276.28;;;-142.66;50.40
11468;BME280;5790;42.762;23.430;2023-07-30T06:46:23;71304.84;;;-142.66;50.83
11468;BME280;5790;42.762;23.430;2023-07-30T06:48:59;71272.19;;;-142.66;48.79
11468;BME280;5790;42.762;23.430;2023-07-30T06:51:27;71257.91;;;-142.66;47.69
11468;BME280;5790;42.762;23.430;2023-07-30T06:53:55;71237.50;;;-142.66;47.58
11468;BME280;5790;42.762;23.430;2023-07-30T06:56:27;71221.19;;;-142.66;47.52
11468;BME280;5790;42.762;23.430;2023-07-30T06:59:08;71186.50;;;-142.66;46.20
11468;BME280;5790;42.762;23.430;2023-07-30T07:01:37;71168.16;;;-142.66;44.75
11468;BME280;5790;42.762;23.430;2023-07-30T07:04:05;71186.50;;;-142.66;45.71
11468;BME280;5790;42.762;23.430;2023-07-30T07:06:35;71151.84;;;-142.66;44.21
11468;BME280;5790;42.762;23.430;2023-07-30T07:09:02;71127.34;;;-142.66;43.54
11468;BME280;5790;42.762;23.430;2023-07-30T07:11:30;71100.84;;;-142.66;43.79
11468;BME280;5790;42.762;23.430;2023-07-30T07:13:57;71074.31;;;-142.66;45.81
11468;BME280;5790;42.762;23.430;2023-07-30T07:16:33;71047.78;;;-142.66;43.75
11468;BME280;5790;42.762;23.430;2023-07-30T07:19:02;71090.63;;;-142.66;45.42
11468;BME280;5790;42.762;23.430;2023-07-30T07:21:32;71062.06;;;-142.66;41.40
11468;BME280;5790;42.762;23.430;2023-07-30T07:24:00;71104.91;;;-142.66;42.69
11468;BME280;5790;42.762;23.430;2023-07-30T07:26:29;71068.19;;;-142.66;41.46
11468;BME280;5790;42.762;23.430;2023-07-30T07:28:56;71049.84;;;-142.66;42.06
11468;BME280;5790;42.762;23.430;2023-07-30T07:31:23;71043.72;;;-142.66;44.26
11468;BME280;5790;42.762;23.430;2023-07-30T07:33:50;71037.59;;;-142.66;39.60
11468;BME280;5790;42.762;23.430;2023-07-30T07:36:19;70996.78;;;-142.66;41.40
11468;BME280;5790;42.762;23.430;2023-07-30T07:38:46;70978.44;;;-142.66;41.61
11468;BME280;5790;42.762;23.430;2023-07-30T07:41:14;70951.91;;;-142.66;42.16
11468;BME280;5790;42.762;23.430;2023-07-30T07:43:42;70956.00;;;-142.66;41.58
11468;BME280;5790;42.762;23.430;2023-07-30T07:46:09;70958.03;;;-142.66;40.24
11468;BME280;5790;42.762;23.430;2023-07-30T07:48:39;70927.44;;;-142.66;40.41
11468;BME280;5790;42.762;23.430;2023-07-30T07:51:08;70900.91;;;-142.66;44.16
11468;BME280;5790;42.762;23.430;2023-07-30T07:53:38;70884.59;;;-142.66;40.99
11468;BME280;5790;42.762;23.430;2023-07-30T07:56:05;70905.00;;;-142.66;41.45
11468;BME280;5790;42.762;23.430;2023-07-30T08:01:09;70966.19;;;-142.66;37.04
11468;BME280;5790;42.762;23.430;2023-07-30T08:03:36;70998.84;;;-142.66;38.03
11468;BME280;5790;42.762;23.430;2023-07-30T08:06:03;70947.84;;;-142.66;38.96
11468;BME280;5790;42.762;23.430;2023-07-30T08:08:30;70925.41;;;-142.66;38.14
11468;BME280;5790;42.762;23.430;2023-07-30T08:11:04;70890.72;;;-142.66;37.34
11468;BME280;5790;42.762;23.430;2023-07-30T08:13:31;70862.16;;;-142.66;38.99
11468;BME280;5790;42.762;23.430;2023-07-30T08:15:58;70860.13;;;-142.66;39.45
11468;BME280;5790;42.762;23.430;2023-07-30T08:18:26;70829.53;;;-142.66;35.91
11468;BME280;5790;42.762;23.430;2023-07-30T08:20:53;70823.41;;;-142.66;35.45
11468;BME280;5790;42.762;23.430;2023-07-30T08:23:20;70788.72;;;-142.66;36.16
11468;BME280;5790;42.762;23.430;2023-07-30T08:25:47;70809.13;;;-142.66;34.11
11468;BME280;5790;42.762;23.430;2023-07-30T08:28:17;70811.16;;;-142.66;34.98
11468;BME280;5790;42.762;23.430;2023-07-30T08:30:46;70792.81;;;-142.66;37.13
11468;BME280;5790;42.762;23.430;2023-07-30T08:33:13;70756.09;;;-142.66;36.12
11468;BME280;5790;42.762;23.430;2023-07-30T08:35:40;70760.16;;;-142.66;35.12
11468;BME280;5790;42.762;23.430;2023-07-30T08:38:08;70768.31;;;-142.66;34.13
11468;BME280;5790;42.762;23.430;2023-07-30T08:40:35;70809.13;;;-142.66;34.71
11468;BME280;5790;42.762;23.430;2023-07-30T08:43:03;70774.44;;;-142.66;33.63
11468;BME280;5790;42.762;23.430;2023-07-30T08:45:32;70737.72;;;-142.66;34.37
11468;BME280;5790;42.762;23.430;2023-07-30T08:47:59;70733.66;;;-142.66;35.16
11468;BME280;5790;42.762;23.430;2023-07-30T08:50:26;70737.72;;;-142.66;34.28
11468;BME280;5790;42.762;23.430;2023-07-30T08:52:55;70733.66;;;-142.66;34.00
11468;BME280;5790;42.762;23.430;2023-07-30T08:55:23;70705.09;;;-142.66;32.76
11468;BME280;5790;42.762;23.430;2023-07-30T08:57:51;70713.25;;;-142.66;31.75
11468;BME280;5790;42.762;23.430;2023-07-30T09:00:19;70754.03;;;-142.66;30.52
11468;BME280;5790;42.762;23.430;2023-07-30T09:02:52;70729.56;;;-142.66;33.85
11468;BME280;5790;42.762;23.430;2023-07-30T09:05:20;70709.16;;;-142.66;34.54
11468;BME280;5790;42.762;23.430;2023-07-30T09:07:48;70711.22;;;-142.66;36.22
11468;BME280;5790;42.762;23.430;2023-07-30T09:10:15;70707.13;;;-142.66;34.76
11468;BME280;5790;42.762;23.430;2023-07-30T09:12:42;70694.88;;;-142.66;34.67
11468;BME280;5790;42.762;23.430;2023-07-30T09:15:09;70692.84;;;-142.66;33.15
11468;BME280;5790;42.762;23.430;2023-07-30T09:17:38;70707.13;;;-142.66;30.95
11468;BME280;5790;42.762;23.430;2023-07-30T09:20:07;70696.94;;;-142.66;30.51
11468;BME280;5790;42.762;23.430;2023-07-30T09:22:34;70690.81;;;-142.66;31.47
11468;BME280;5790;42.762;23.430;2023-07-30T09:25:06;70690.81;;;-142.66;31.81
11468;BME280;5790;42.762;23.430;2023-07-30T09:27:33;70678.56;;;-142.66;31.93
11468;BME280;5790;42.762;23.430;2023-07-30T09:30:01;70682.66;;;-142.66;31.61
11468;BME280;5790;42.762;23.430;2023-07-30T09:32:30;70696.94;;;-142.66;31.29
11468;BME280;5790;42.762;23.430;2023-07-30T09:35:05;70707.13;;;-142.66;31.50
11468;BME280;5790;42.762;23.430;2023-07-30T09:37:35;70684.69;;;-142.66;31.80
11468;BME280;5790;42.762;23.430;2023-07-30T09:40:04;70670.41;;;-142.66;30.61
11468;BME280;5790;42.762;23.430;2023-07-30T09:42:32;70694.88;;;-142.66;30.96
11468;BME280;5790;42.762;23.430;2023-07-30T09:45:01;70678.56;;;-142.66;28.86
11468;BME280;5790;42.762;23.430;2023-07-30T09:47:30;70672.47;;;-142.66;30.35
11468;BME280;5790;42.762;23.430;2023-07-30T09:49:57;70654.09;;;-142.66;31.68
11468;BME280;5790;42.762;23.430;2023-07-30T09:52:25;70658.19;;;-142.66;31.46
11468;BME280;5790;42.762;23.430;2023-07-30T09:54:53;70658.19;;;-142.66;30.71
11468;BME280;5790;42.762;23.430;2023-07-30T09:57:20;70654.09;;;-142.66;29.82
11468;BME280;5790;42.762;23.430;2023-07-30T09:59:47;70660.22;;;-142.66;31.54
11468;BME280;5790;42.762;23.430;2023-07-30T10:02:16;70666.34;;;-142.66;29.03
11468;BME280;5790;42.762;23.430;2023-07-30T10:04:47;70658.19;;;-142.66;30.91
11468;BME280;5790;42.762;23.430;2023-07-30T10:07:18;70662.25;;;-142.66;31.51
11468;BME280;5790;42.762;23.430;2023-07-30T10:09:48;70652.06;;;-142.66;31.16
11468;BME280;5790;42.762;23.430;2023-07-30T10:12:23;70645.94;;;-142.66;30.48
11468;BME280;5790;42.762;23.430;2023-07-30T10:14:51;70650.03;;;-142.66;29.13
11468;BME280;5790;42.762;23.430;2023-07-30T10:17:19;70639.81;;;-142.66;31.07
11468;BME280;5790;42.762;23.430;2023-07-30T10:19:47;70633.69;;;-142.66;30.25
11468;BME280;5790;42.762;23.430;2023-07-30T10:22:23;70629.63;;;-142.66;30.75
11468;BME280;5790;42.762;23.430;2023-07-30T10:24:59;70625.53;;;-142.66;27.66
11468;BME280;5790;42.762;23.430;2023-07-30T10:27:29;70627.59;;;-142.66;30.50
11468;BME280;5790;42.762;23.430;2023-07-30T10:30:09;70627.59;;;-142.66;28.45
11468;BME280;5790;42.762;23.430;2023-07-30T10:32:40;70627.59;;;-142.66;27.96
11468;BME280;5790;42.762;23.430;2023-07-30T10:35:08;70637.78;;;-142.66;28.79
11468;BME280;5790;42.762;23.430;2023-07-30T10:37:35;70625.53;;;-142.66;27.51
11468;BME280;5790;42.762;23.430;2023-07-30T10:40:21;70621.47;;;-142.66;27.48
11468;BME280;5790;42.762;23.430;2023-07-30T10:42:49;70635.75;;;-142.66;25.83
11468;BME280;5790;42.762;23.430;2023-07-30T10:45:16;70619.41;;;-142.66;25.80
11468;BME280;5790;42.762;23.430;2023-07-30T10:47:43;70607.19;;;-142.66;26.92
11468;BME280;5790;42.762;23.430;2023-07-30T10:50:10;70596.97;;;-142.66;26.05
11468;BME280;5790;42.762;23.430;2023-07-30T10:52:38;70592.91;;;-142.66;28.31
11468;BME280;5790;42.762;23.430;2023-07-30T10:55:07;70580.66;;;-142.66;28.20
11468;BME280;5790;42.762;23.430;2023-07-30T10:57:35;70578.63;;;-142.66;27.64
11468;BME280;5790;42.762;23.430;2023-07-30T11:00:06;70556.19;;;-142.66;28.62
11468;BME280;5790;42.762;23.430;2023-07-30T11:02:34;70564.34;;;-142.66;27.17
11468;BME280;5790;42.762;23.430;2023-07-30T11:05:11;70554.16;;;-142.66;28.10
11468;BME280;5790;42.762;23.430;2023-07-30T11:07:38;70548.03;;;-142.66;27.21
11468;BME280;5790;42.762;23.430;2023-07-30T11:10:06;70543.94;;;-142.66;29.49
11468;BME280;5790;42.762;23.430;2023-07-30T11:12:35;70533.75;;;-142.66;28.02
11468;BME280;5790;42.762;23.430;2023-07-30T11:15:02;70529.69;;;-142.66;28.78
11468;BME280;5790;42.762;23.430;2023-07-30T11:17:30;70519.47;;;-142.66;28.25
11468;BME280;5790;42.762;23.430;2023-07-30T11:19:57;70513.34;;;-142.66;29.14
11468;BME280;5790;42.762;23.430;2023-07-30T11:22:31;70525.59;;;-142.66;27.27
11468;BME280;5790;42.762;23.430;2023-07-30T11:24:58;70533.75;;;-142.66;27.05
11468;BME280;5790;42.762;23.430;2023-07-30T11:27:27;70519.47;;;-142.66;27.71
11468;BME280;5790;42.762;23.430;2023-07-30T11:29:56;70521.50;;;-142.66;27.28
11468;BME280;5790;42.762;23.430;2023-07-30T11:32:26;70519.47;;;-142.66;28.99
11468;BME280;5790;42.762;23.430;2023-07-30T11:34:55;70523.56;;;-142.66;28.96
11468;BME280;5790;42.762;23.430;2023-07-30T11:37:23;70511.31;;;-142.66;26.81
11468;BME280;5790;42.762;23.430;2023-07-30T11:39:50;70507.25;;;-142.66;27.14
11468;BME280;5790;42.762;23.430;2023-07-30T11:42:19;70507.25;;;-142.66;28.61
11468;BME280;5790;42.762;23.430;2023-07-30T11:44:47;70495.00;;;-142.66;28.35
11468;BME280;5790;42.762;23.430;2023-07-30T11:47:22;70484.81;;;-142.66;28.66
11468;BME280;5790;42.762;23.430;2023-07-30T11:49:58;70468.47;;;-142.66;29.83
11468;BME280;5790;42.762;23.430;2023-07-30T11:52:25;70462.38;;;-142.66;29.08
11468;BME280;5790;42.762;23.430;2023-07-30T11:55:00;70452.16;;;-142.66;27.78
11468;BME280;5790;42.762;23.430;2023-07-30T11:57:33;70448.09;;;-142.66;28.33
11468;BME280;5790;42.762;23.430;2023-07-30T12:00:01;70439.94;;;-142.66;28.05
11468;BME280;5790;42.762;23.430;2023-07-30T12:02:30;70435.84;;;-142.66;26.85
11468;BME280;5790;42.762;23.430;2023-07-30T12:04:57;70427.69;;;-142.66;27.60
11468;BME280;5790;42.762;23.430;2023-07-30T12:07:24;70419.53;;;-142.66;27.74
11468;BME280;5790;42.762;23.430;2023-07-30T12:09:51;70427.69;;;-142.66;28.13
11468;BME280;5790;42.762;23.430;2023-07-30T12:12:19;70417.50;;;-142.66;27.83
11468;BME280;5790;42.762;23.430;2023-07-30T12:14:53;70409.34;;;-142.66;28.01
11468;BME280;5790;42.762;23.430;2023-07-30T12:17:21;70401.19;;;-142.66;27.66
11468;BME280;5790;42.762;23.430;2023-07-30T12:19:50;70393.03;;;-142.66;28.65
11468;BME280;5790;42.762;23.430;2023-07-30T12:22:17;70388.94;;;-142.66;26.70
11468;BME280;5790;42.762;23.430;2023-07-30T12:24:44;70380.78;;;-142.66;28.13
11468;BME280;5790;42.762;23.430;2023-07-30T12:27:11;70378.75;;;-142.66;26.62
11468;BME280;5790;42.762;23.430;2023-07-30T12:29:38;70376.69;;;-142.66;27.34
11468;BME280;5790;42.762;23.430;2023-07-30T12:32:06;70393.03;;;-142.66;26.90
11468;BME280;5790;42.762;23.430;2023-07-30T12:34:33;70376.69;;;-142.66;26.79
11468;BME280;5790;42.762;23.430;2023-07-30T12:37:02;70376.69;;;-142.66;27.27
11468;BME280;5790;42.762;23.430;2023-07-30T12:39:29;70368.53;;;-142.66;26.94
11468;BME280;5790;42.762;23.430;2023-07-30T12:41:56;70368.53;;;-142.66;26.31
11468;BME280;5790;42.762;23.430;2023-07-30T12:44:24;70364.47;;;-142.66;26.62
11468;BME280;5790;42.762;23.430;2023-07-30T12:46:51;70360.38;;;-142.66;26.28
11468;BME280;5790;42.762;23.430;2023-07-30T12:49:18;70348.16;;;-142.66;26.11